KBFD/BFD METAR and TAF weather

Enter ICAO airport designator
Station Type Date Time Source
KBFD METAR 2020/06/02 16:53 UTC NOAA

KBFD 021653Z AUTO 23009G15KT 10SM FEW038 BKN060 BKN080 17/07 A2997 RMK AO2 SLP146 T01720067


Station Type Date Time Source
KBFD Decoded METAR 2020/06/02 16:53 UTC NOAA

BRADFORD REGIONAL AIRPORT, PA, United States (KBFD) 41-48N 078-38W 647M
Jun 02, 2020 - 12:53 PM EDT / 2020.06.02 1653 UTC
Wind: from the SW (230 degrees) at 10 MPH (9 KT) gusting to 17 MPH (15 KT):0
Visibility: 10 mile(s):0
Sky conditions: mostly cloudy
Temperature: 63.0 F (17.2 C)
Dew Point: 44.1 F (6.7 C)
Relative Humidity: 50%
Pressure (altimeter): 29.97 in. Hg (1014 hPa)
ob: KBFD 021653Z AUTO 23009G15KT 10SM FEW038 BKN060 BKN080 17/07 A2997 RMK AO2 SLP146 T01720067
cycle: 17

Station Type Date Time Source
KBFD TAF 2020/06/02 16:09 UTC NOAA

TAF
AMD KBFD 021607Z 0216/0312 23007G15KT P6SM OVC040
FM022000 24007KT P6SM OVC050
FM030300 27010KT P6SM -SHRA OVC025 WS020/28040KT
FM030600 26010KT P6SM VCSH OVC015

Example: see airport list